createdAt,value
2022-12-25T00:03:35.828Z,33.00
2022-12-25T00:09:44.890Z,33.40
2022-12-25T00:15:52.582Z,32.70
2022-12-25T00:22:01.567Z,31.60
2022-12-25T00:28:13.187Z,31.50
2022-12-25T00:34:20.650Z,33.00
2022-12-25T00:40:29.641Z,33.30
2022-12-25T00:46:41.146Z,33.10
2022-12-25T00:52:51.249Z,32.40
2022-12-25T00:59:05.080Z,34.60
2022-12-25T01:05:15.608Z,35.20
2022-12-25T01:11:26.599Z,34.50
2022-12-25T01:17:36.319Z,34.00
2022-12-25T01:23:47.625Z,32.60
2022-12-25T01:29:57.492Z,32.60
2022-12-25T01:36:07.196Z,33.30
2022-12-25T01:42:21.044Z,32.90
2022-12-25T01:48:32.420Z,33.00
2022-12-25T01:54:44.117Z,33.00
2022-12-25T02:00:54.087Z,33.00
2022-12-25T02:07:06.216Z,33.00
2022-12-25T02:13:13.877Z,33.00
2022-12-25T02:19:26.720Z,33.10
2022-12-25T02:25:43.315Z,33.00
2022-12-25T02:31:55.533Z,32.90
2022-12-25T02:38:06.279Z,32.70
2022-12-25T02:44:35.087Z,33.30
2022-12-25T02:51:02.912Z,32.80
2022-12-25T02:57:30.548Z,32.60
2022-12-25T03:03:56.168Z,32.50
2022-12-25T03:10:25.068Z,32.50
2022-12-25T03:16:49.555Z,32.60
2022-12-25T03:23:17.798Z,32.40
2022-12-25T03:29:44.633Z,32.50
2022-12-25T03:36:04.420Z,32.70
2022-12-25T03:42:32.547Z,32.70
2022-12-25T03:49:02.922Z,32.60
2022-12-25T03:55:28.756Z,32.50
2022-12-25T04:01:58.309Z,32.50
2022-12-25T04:08:30.544Z,32.90
2022-12-25T04:14:55.715Z,32.20
2022-12-25T04:21:22.173Z,32.90
2022-12-25T04:27:48.551Z,32.50
2022-12-25T04:34:13.486Z,32.50
2022-12-25T04:40:23.048Z,32.90
2022-12-25T04:46:33.974Z,32.60
2022-12-25T04:52:41.676Z,32.60
2022-12-25T04:58:52.429Z,32.70
2022-12-25T05:05:03.216Z,32.70
2022-12-25T05:11:13.894Z,33.00
2022-12-25T05:17:21.342Z,33.60
2022-12-25T05:23:30.960Z,33.50
2022-12-25T05:29:40.353Z,32.60
2022-12-25T05:35:53.018Z,33.10
2022-12-25T05:42:06.331Z,33.50
2022-12-25T05:48:15.807Z,33.50
2022-12-25T05:54:27.392Z,33.50
2022-12-25T06:00:37.352Z,32.70
2022-12-25T06:06:44.736Z,33.00
2022-12-25T06:12:52.024Z,33.10
2022-12-25T06:19:02.866Z,33.30
2022-12-25T06:25:14.605Z,32.80
2022-12-25T06:31:25.879Z,32.80
2022-12-25T06:37:36.232Z,33.00
2022-12-25T06:43:52.275Z,33.10
2022-12-25T06:49:59.682Z,32.70
2022-12-25T06:56:15.954Z,32.60
2022-12-25T07:02:24.793Z,33.00
2022-12-25T07:08:36.815Z,33.10
2022-12-25T07:14:47.118Z,32.50
2022-12-25T07:20:56.553Z,32.50
2022-12-25T07:27:05.941Z,32.90
2022-12-25T07:33:14.197Z,33.00
2022-12-25T07:39:25.996Z,32.50
2022-12-25T07:45:34.308Z,32.40
2022-12-25T07:51:45.129Z,32.60
2022-12-25T07:57:55.535Z,33.00
2022-12-25T08:04:04.825Z,32.90
2022-12-25T08:10:13.606Z,32.30
2022-12-25T08:16:22.829Z,32.40
2022-12-25T08:22:32.170Z,32.80
2022-12-25T08:28:40.330Z,33.30
2022-12-25T08:34:51.067Z,33.30
2022-12-25T08:41:02.870Z,32.40
2022-12-25T08:47:11.992Z,32.60
2022-12-25T08:53:23.362Z,33.00
2022-12-25T08:59:32.483Z,33.30
2022-12-25T09:05:40.034Z,33.40
2022-12-25T09:11:48.155Z,33.00
2022-12-25T09:17:55.647Z,32.50
2022-12-25T09:24:04.819Z,32.70
2022-12-25T09:30:19.567Z,32.80
2022-12-25T09:36:27.334Z,33.10
2022-12-25T09:42:35.098Z,33.30
2022-12-25T09:48:46.481Z,33.30
2022-12-25T09:54:57.627Z,32.50
2022-12-25T10:01:10.482Z,32.40
2022-12-25T10:07:24.899Z,32.60
2022-12-25T10:13:57.861Z,33.20
2022-12-25T10:20:12.957Z,33.10
2022-12-25T10:26:23.130Z,32.80
2022-12-25T10:32:32.187Z,32.50
2022-12-25T10:38:40.399Z,32.60
2022-12-25T10:45:03.148Z,33.10
2022-12-25T10:51:14.955Z,33.10
2022-12-25T11:03:47.356Z,32.80
2022-12-25T11:10:02.706Z,33.20
2022-12-25T11:16:10.194Z,32.80
2022-12-25T11:22:21.001Z,32.60
2022-12-25T11:28:28.446Z,32.90
2022-12-25T11:34:39.541Z,33.00
2022-12-25T11:40:48.623Z,33.00
2022-12-25T11:46:59.541Z,32.50
2022-12-25T11:53:08.273Z,32.80
2022-12-25T11:59:22.307Z,33.20
2022-12-25T12:05:33.292Z,33.10
2022-12-25T12:11:41.347Z,32.60
2022-12-25T12:17:50.390Z,32.80
2022-12-25T12:24:02.249Z,33.10
2022-12-25T12:30:23.788Z,33.20
2022-12-25T12:36:36.552Z,33.10
2022-12-25T12:42:49.531Z,33.10
2022-12-25T12:49:00.807Z,33.20
2022-12-25T12:55:13.569Z,33.10
2022-12-25T13:01:34.051Z,33.10
2022-12-25T13:07:51.782Z,33.20
2022-12-25T13:14:03.802Z,33.10
2022-12-25T13:20:18.413Z,33.20
2022-12-25T13:26:28.416Z,33.00
2022-12-25T13:32:38.895Z,33.10
2022-12-25T13:38:53.069Z,33.10
2022-12-25T13:45:03.770Z,33.60
2022-12-25T13:51:17.743Z,32.40
2022-12-25T13:57:28.175Z,32.70
2022-12-25T14:03:37.968Z,34.10
2022-12-25T14:09:46.458Z,33.00
2022-12-25T14:15:56.350Z,32.40
2022-12-25T14:22:10.398Z,33.10
2022-12-25T14:28:24.305Z,34.10
2022-12-25T14:34:36.546Z,33.90
2022-12-25T14:40:46.294Z,33.70
2022-12-25T14:46:55.853Z,33.60
2022-12-25T14:53:05.894Z,32.90
2022-12-25T14:59:21.263Z,33.70
2022-12-25T15:05:37.770Z,33.80
2022-12-25T15:11:52.127Z,33.10
2022-12-25T15:18:04.745Z,32.60
2022-12-25T15:24:18.935Z,32.40
2022-12-25T15:30:29.393Z,32.00
2022-12-25T15:36:37.714Z,32.90
2022-12-25T15:42:46.951Z,32.80
2022-12-25T15:48:57.166Z,32.80
2022-12-25T15:55:08.255Z,32.10
2022-12-25T16:01:18.801Z,32.20
2022-12-25T16:07:28.321Z,32.00
2022-12-25T16:13:37.096Z,32.00
2022-12-25T16:19:50.357Z,32.00
2022-12-25T16:26:01.135Z,32.10
2022-12-25T16:32:13.546Z,31.60
2022-12-25T16:38:29.050Z,31.40
2022-12-25T16:44:39.257Z,31.10
2022-12-25T16:50:48.609Z,30.90
2022-12-25T16:56:59.720Z,30.80
2022-12-25T17:03:09.163Z,30.90
2022-12-25T17:09:18.727Z,30.60
2022-12-25T17:15:26.563Z,30.60
2022-12-25T17:21:37.165Z,30.50
2022-12-25T17:27:48.353Z,30.50
2022-12-25T17:33:57.847Z,30.40
2022-12-25T17:40:06.916Z,30.30
2022-12-25T17:46:18.653Z,30.40
2022-12-25T17:52:28.294Z,30.50
2022-12-25T17:58:40.979Z,30.60
2022-12-25T18:04:52.097Z,30.30
2022-12-25T18:11:02.470Z,30.20
2022-12-25T18:17:15.186Z,30.20
2022-12-25T18:23:25.781Z,30.40
2022-12-25T18:29:35.909Z,30.50
2022-12-25T18:35:45.363Z,30.70
2022-12-25T18:42:12.846Z,30.30
2022-12-25T18:48:25.678Z,30.20
2022-12-25T18:54:39.182Z,30.30
2022-12-25T19:00:47.159Z,30.30
2022-12-25T19:07:00.313Z,30.50
2022-12-25T19:13:12.446Z,30.50
2022-12-25T19:19:25.298Z,30.30
2022-12-25T19:25:35.369Z,30.20
2022-12-25T19:31:43.302Z,30.60
2022-12-25T19:37:55.303Z,30.70
2022-12-25T19:44:04.580Z,30.70
2022-12-25T19:50:14.950Z,30.40
2022-12-25T19:56:23.707Z,30.40
2022-12-25T20:02:32.057Z,30.40
2022-12-25T20:08:40.396Z,30.90
2022-12-25T20:14:55.172Z,31.00
2022-12-25T20:21:07.875Z,30.60
2022-12-25T20:27:21.252Z,30.60
2022-12-25T20:33:30.319Z,30.60
2022-12-25T20:39:38.775Z,31.10
2022-12-25T20:45:49.861Z,31.20
2022-12-25T20:52:04.544Z,31.20
2022-12-25T20:58:11.037Z,31.30
2022-12-25T21:04:19.440Z,30.80
2022-12-25T21:10:29.641Z,30.80
2022-12-25T21:16:39.964Z,30.80
2022-12-25T21:22:50.406Z,31.40
2022-12-25T21:28:58.751Z,31.50
2022-12-25T21:35:12.642Z,31.30
2022-12-25T21:41:22.525Z,31.00
2022-12-25T21:48:02.499Z,31.00
2022-12-25T21:53:41.075Z,31.20
2022-12-25T21:59:49.648Z,31.80
2022-12-25T22:06:21.671Z,31.80
2022-12-25T22:13:05.505Z,31.70
2022-12-25T22:25:31.175Z,31.20
2022-12-25T22:31:46.442Z,31.70
2022-12-25T22:37:50.330Z,31.80
2022-12-25T22:44:17.994Z,31.90
2022-12-25T22:50:12.518Z,31.40
2022-12-25T22:56:25.517Z,31.00
2022-12-25T23:02:35.834Z,31.20
2022-12-25T23:08:45.396Z,31.90
2022-12-25T23:14:58.195Z,31.70
2022-12-25T23:21:24.579Z,31.50
2022-12-25T23:27:35.017Z,31.10
2022-12-25T23:33:46.358Z,31.10
2022-12-25T23:39:54.531Z,31.80
2022-12-25T23:46:04.437Z,31.90
2022-12-25T23:52:15.768Z,31.70
2022-12-25T23:58:26.743Z,31.60
